Terminal Aerodrome Forecast
Issued by NWS

Home | Current Version | Previous Version | Text Only | Print | Product List | Glossary On
Versions: 1 2 3 4 5 6 7 8 9 10 11 12 13 14 15 16 17 18 19 20 21 22 23 24 25 26 27 28 29 30 31 32 33 34 35 36 37
000
FTUS42 KRAH 280526
TAFRWI
TAF
KRWI 280526Z 2806/2906 16002KT 2SM BR SCT003
      TEMPO 2806/2810 1/4SM FG VV001
     FM281300 17003KT P6SM SCT030 BKN100
     FM282100 17005KT P6SM VCTS SCT035CB=

USA.gov is the U.S. government's official web portal to all federal, state and local government web resources and services.